createdAt,value
2023-02-28T00:03:50.620Z,54.59
2023-02-28T00:08:54.125Z,54.43
2023-02-28T00:13:57.184Z,54.58
2023-02-28T00:19:00.582Z,56.01
2023-02-28T00:24:03.658Z,55.54
2023-02-28T00:29:07.334Z,56.24
2023-02-28T00:34:11.694Z,56.84
2023-02-28T00:39:15.318Z,57.95
2023-02-28T00:44:18.561Z,60.26
2023-02-28T00:49:21.990Z,62.22
2023-02-28T00:54:25.562Z,62.27
2023-02-28T00:59:29.101Z,64.35
2023-02-28T01:04:32.434Z,65.34
2023-02-28T01:09:38.366Z,62.41
2023-02-28T01:14:41.509Z,63.04
2023-02-28T01:19:45.267Z,62.92
2023-02-28T01:24:49.116Z,65.03
2023-02-28T01:29:52.596Z,63.52
2023-02-28T01:34:56.474Z,62.87
2023-02-28T01:39:59.741Z,62.21
2023-02-28T01:45:20.808Z,59.19
2023-02-28T01:50:31.126Z,58.84
2023-02-28T01:55:36.781Z,60.29
2023-02-28T02:00:42.168Z,60.07
2023-02-28T02:05:50.215Z,60.87
2023-02-28T02:10:58.550Z,65.68
2023-02-28T02:16:11.094Z,64.85
2023-02-28T02:21:20.088Z,65.99
2023-02-28T02:26:29.908Z,67.06
2023-02-28T02:31:43.444Z,67.41
2023-02-28T02:37:02.359Z,66.49
2023-02-28T02:42:17.257Z,68.72
2023-02-28T02:47:25.632Z,69.32
2023-02-28T02:52:38.082Z,70.17
2023-02-28T02:57:51.786Z,66.50
2023-02-28T03:02:57.124Z,67.49
2023-02-28T03:08:00.110Z,68.10
2023-02-28T03:13:40.656Z,70.24
2023-02-28T03:19:26.293Z,70.83
2023-02-28T03:24:48.440Z,69.11
2023-02-28T03:30:21.532Z,69.47
2023-02-28T03:35:39.139Z,67.89
2023-02-28T03:40:49.785Z,70.72
2023-02-28T03:45:55.632Z,72.68
2023-02-28T03:51:03.494Z,73.21
2023-02-28T03:56:24.241Z,72.62
2023-02-28T04:01:39.589Z,72.84
2023-02-28T04:06:43.674Z,75.04
2023-02-28T04:11:56.829Z,75.40
2023-02-28T04:16:59.876Z,75.87
2023-02-28T04:22:03.311Z,76.01
2023-02-28T04:27:06.516Z,76.05
2023-02-28T04:32:10.177Z,76.23
2023-02-28T04:37:14.463Z,76.04
2023-02-28T04:42:17.589Z,74.87
2023-02-28T04:47:20.709Z,74.60
2023-02-28T04:52:24.184Z,73.78
2023-02-28T04:57:27.178Z,74.82
2023-02-28T05:02:30.719Z,74.04
2023-02-28T05:07:34.596Z,74.62
2023-02-28T05:12:37.801Z,72.90
2023-02-28T05:17:41.260Z,74.12
2023-02-28T05:22:45.719Z,73.14
2023-02-28T05:27:49.408Z,70.58
2023-02-28T05:32:53.478Z,69.87
2023-02-28T05:37:56.652Z,71.01
2023-02-28T05:43:00.124Z,67.80
2023-02-28T05:48:04.181Z,67.64
2023-02-28T05:53:07.202Z,64.69
2023-02-28T05:58:10.596Z,66.27
2023-02-28T06:03:14.048Z,68.16
2023-02-28T06:08:17.276Z,69.75
2023-02-28T06:13:20.509Z,71.23
2023-02-28T06:18:24.033Z,73.19
2023-02-28T06:23:27.044Z,72.94
2023-02-28T06:28:30.642Z,70.80
2023-02-28T06:33:34.792Z,68.07
2023-02-28T06:38:38.538Z,68.95
2023-02-28T06:43:43.852Z,66.92
2023-02-28T06:48:48.497Z,63.96
2023-02-28T06:53:52.619Z,66.48
2023-02-28T06:58:55.667Z,63.63
2023-02-28T07:03:59.792Z,57.01
2023-02-28T07:09:02.831Z,55.16
2023-02-28T07:14:06.401Z,58.38
2023-02-28T07:19:09.439Z,58.48
2023-02-28T07:24:13.062Z,56.69
2023-02-28T07:29:16.029Z,56.71
2023-02-28T07:34:19.055Z,48.98
2023-02-28T07:39:23.476Z,48.98
2023-02-28T07:44:27.466Z,48.71
2023-02-28T07:49:30.436Z,48.35
2023-02-28T07:54:35.046Z,46.57
2023-02-28T07:59:38.017Z,48.60
2023-02-28T08:04:42.052Z,47.76
2023-02-28T08:09:45.978Z,46.83
2023-02-28T08:14:49.953Z,47.07
2023-02-28T08:19:52.972Z,45.26
2023-02-28T08:24:56.861Z,45.13
2023-02-28T08:30:00.046Z,45.95
2023-02-28T08:35:04.356Z,51.56
2023-02-28T08:40:08.279Z,46.98
2023-02-28T08:45:12.046Z,48.17
2023-02-28T08:50:16.129Z,49.90
2023-02-28T08:55:19.373Z,51.51
2023-02-28T09:00:23.354Z,57.35
2023-02-28T09:05:26.675Z,54.60
2023-02-28T09:10:30.157Z,55.11
2023-02-28T09:15:33.534Z,47.43
2023-02-28T09:20:40.874Z,53.96
2023-02-28T09:25:48.697Z,52.76
2023-02-28T09:30:55.942Z,57.59
2023-02-28T09:36:01.923Z,58.98
2023-02-28T09:41:16.416Z,61.87
2023-02-28T09:46:42.927Z,62.86
2023-02-28T09:51:45.839Z,64.26
2023-02-28T09:56:53.436Z,62.25
2023-02-28T10:02:15.046Z,64.44
2023-02-28T10:07:40.150Z,63.45
2023-02-28T10:12:47.302Z,64.55
2023-02-28T10:18:08.493Z,70.02
2023-02-28T10:23:22.038Z,69.39
2023-02-28T10:28:28.419Z,67.22
2023-02-28T10:33:33.077Z,62.80
2023-02-28T10:38:39.457Z,58.16
2023-02-28T10:43:44.002Z,54.57
2023-02-28T10:48:59.833Z,58.18
2023-02-28T10:54:04.459Z,57.78
2023-02-28T10:59:10.284Z,51.85
2023-02-28T11:04:40.690Z,45.01
2023-02-28T11:09:48.787Z,42.35
2023-02-28T11:15:04.392Z,41.88
2023-02-28T11:20:19.496Z,38.25
2023-02-28T11:25:32.371Z,39.46
2023-02-28T11:30:39.104Z,41.86
2023-02-28T11:35:42.284Z,42.51
2023-02-28T11:41:01.293Z,46.36
2023-02-28T11:46:14.290Z,48.00
2023-02-28T11:51:30.326Z,51.11
2023-02-28T11:56:38.030Z,47.78
2023-02-28T12:01:56.526Z,56.08
2023-02-28T12:07:16.604Z,51.03
2023-02-28T12:12:26.875Z,49.71
2023-02-28T12:18:05.498Z,52.66
2023-02-28T12:23:48.527Z,54.27
2023-02-28T12:29:00.268Z,52.42
2023-02-28T12:34:13.341Z,52.20
2023-02-28T12:39:25.684Z,54.00
2023-02-28T12:44:45.556Z,57.97
2023-02-28T12:50:03.418Z,58.25
2023-02-28T12:55:26.536Z,58.71
2023-02-28T13:00:39.006Z,55.20
2023-02-28T13:06:03.473Z,55.96
2023-02-28T13:11:13.136Z,57.52
2023-02-28T13:16:23.430Z,55.54
2023-02-28T13:21:31.323Z,57.56
2023-02-28T13:26:38.268Z,54.75
2023-02-28T13:32:09.754Z,51.83
2023-02-28T13:37:37.247Z,51.73
2023-02-28T13:42:46.343Z,55.27
2023-02-28T13:48:27.430Z,53.96
2023-02-28T13:53:43.554Z,57.05
2023-02-28T13:59:19.088Z,58.76
2023-02-28T14:04:35.352Z,57.01
2023-02-28T14:09:47.649Z,54.03
2023-02-28T14:14:51.335Z,49.70
2023-02-28T14:19:55.399Z,49.63
2023-02-28T14:25:17.289Z,49.90
2023-02-28T14:30:56.817Z,46.78
2023-02-28T14:36:12.143Z,46.70
2023-02-28T14:41:30.294Z,44.74
2023-02-28T14:46:39.806Z,43.15
2023-02-28T14:51:44.053Z,41.86
2023-02-28T14:56:51.391Z,43.51
2023-02-28T15:02:26.223Z,42.70
2023-02-28T15:07:29.895Z,44.82
2023-02-28T15:12:33.579Z,44.18
2023-02-28T15:17:37.468Z,45.20
2023-02-28T15:22:41.010Z,44.33
2023-02-28T15:27:49.751Z,43.03
2023-02-28T15:33:14.668Z,44.06
2023-02-28T15:38:27.414Z,45.17
2023-02-28T15:43:38.244Z,43.72
2023-02-28T15:48:56.280Z,45.23
2023-02-28T15:54:30.449Z,47.35
2023-02-28T15:59:33.856Z,45.85
2023-02-28T16:04:37.212Z,52.57
2023-02-28T16:09:40.200Z,59.28
2023-02-28T16:14:44.201Z,72.03
2023-02-28T16:19:47.207Z,77.82
2023-02-28T16:24:50.767Z,81.17
2023-02-28T16:29:55.237Z,83.69
2023-02-28T16:34:58.995Z,85.70
2023-02-28T16:40:03.094Z,86.43
2023-02-28T16:45:07.256Z,88.76
2023-02-28T16:50:23.192Z,89.13
2023-02-28T16:55:28.111Z,90.56
2023-02-28T17:00:33.875Z,90.87
2023-02-28T17:05:40.857Z,90.62
2023-02-28T17:10:44.047Z,91.56
2023-02-28T17:15:48.428Z,91.37
2023-02-28T17:20:51.639Z,90.74
2023-02-28T17:25:57.765Z,90.03
2023-02-28T17:31:01.498Z,88.63
2023-02-28T17:36:04.900Z,87.68
2023-02-28T17:41:09.560Z,88.02
2023-02-28T17:46:24.145Z,87.79
2023-02-28T17:51:27.855Z,88.41
2023-02-28T17:56:31.270Z,89.12
2023-02-28T18:01:35.574Z,89.23
2023-02-28T18:06:51.146Z,89.07
2023-02-28T18:11:56.554Z,89.57
2023-02-28T18:16:59.749Z,89.56
2023-02-28T18:22:02.898Z,90.17
2023-02-28T18:27:06.826Z,90.44
2023-02-28T18:32:10.578Z,90.91
2023-02-28T18:37:14.558Z,90.95
2023-02-28T18:42:18.063Z,92.73
2023-02-28T18:47:21.671Z,94.34
2023-02-28T18:52:25.224Z,94.05
2023-02-28T18:57:29.567Z,94.66
2023-02-28T19:02:32.798Z,94.82
2023-02-28T19:07:36.306Z,96.19
2023-02-28T19:12:40.130Z,96.43
2023-02-28T19:17:43.209Z,96.39
2023-02-28T19:22:46.256Z,97.35
2023-02-28T19:27:53.762Z,99.16
2023-02-28T19:32:57.350Z,99.87
2023-02-28T19:38:01.015Z,98.82
2023-02-28T19:43:06.180Z,99.79
2023-02-28T19:48:10.217Z,100.00
2023-02-28T19:53:13.266Z,98.79
2023-02-28T19:58:16.579Z,99.25
2023-02-28T20:03:20.215Z,98.86
2023-02-28T20:08:23.711Z,98.43
2023-02-28T20:13:28.479Z,99.70
2023-02-28T20:18:32.511Z,100.00
2023-02-28T20:23:38.729Z,100.00
2023-02-28T20:28:42.767Z,100.00
2023-02-28T20:33:47.109Z,100.00
2023-02-28T20:38:52.978Z,100.00
2023-02-28T20:43:58.510Z,100.00
2023-02-28T20:49:01.931Z,100.00
2023-02-28T20:54:05.584Z,100.00
2023-02-28T20:59:12.116Z,100.00
2023-02-28T21:04:15.293Z,100.00
2023-02-28T21:09:19.569Z,100.00
2023-02-28T21:14:22.665Z,100.00
2023-02-28T21:19:26.062Z,100.00
2023-02-28T21:24:29.401Z,100.00
2023-02-28T21:29:32.947Z,100.00
2023-02-28T21:34:36.428Z,100.00
2023-02-28T21:39:40.007Z,100.00
2023-02-28T21:44:43.554Z,100.00
2023-02-28T21:49:46.610Z,100.00
2023-02-28T21:54:50.177Z,100.00
2023-02-28T21:59:53.155Z,100.00
2023-02-28T22:04:56.259Z,100.00
2023-02-28T22:09:59.426Z,100.00
2023-02-28T22:15:02.547Z,100.00
2023-02-28T22:20:06.627Z,98.90
2023-02-28T22:25:10.223Z,97.41
2023-02-28T22:30:13.437Z,97.21
2023-02-28T22:35:19.725Z,95.86
2023-02-28T22:40:22.789Z,95.59
2023-02-28T22:45:27.745Z,94.46
2023-02-28T22:50:31.353Z,93.93
2023-02-28T22:55:34.385Z,93.25
2023-02-28T23:00:38.723Z,93.80
2023-02-28T23:05:42.408Z,94.29
2023-02-28T23:10:45.489Z,95.00
2023-02-28T23:15:48.482Z,94.64
2023-02-28T23:20:51.530Z,95.44
2023-02-28T23:25:54.619Z,96.03
2023-02-28T23:31:04.727Z,95.84
2023-02-28T23:36:10.334Z,96.49
2023-02-28T23:41:14.847Z,95.99
2023-02-28T23:46:19.835Z,96.31
2023-02-28T23:51:23.119Z,95.23
2023-02-28T23:56:26.172Z,94.60
